MUC | München Airways

 METAR UND TAF INFORMATION

METAR FOR LIML
ADDS - METARS form results

(0856 UTC 22 March 2019)
Data provider http://aviationweather.gov/metar/data/
 
METAR text: LIML 220850Z 21005KT 180V240 CAVOK 13/03 Q1031 NOSIG
Conditions at: LIML (MILANO/LINATE , IT) observed 0850 UTC 22 March 2019
Temperature: 13.0°C (55°F)
Dewpoint: 3.0°C (37°F) [RH = 51%]
Pressure (altimeter): 30.44 inches Hg (1031.0 mb)
Winds: from the SSW (210 degrees) at 6 MPH (5 knots; 2.6 m/s)
Visibility: 6 or more miles (10+ km)
Ceiling: ceiling and visibility are OK
Clouds: unknown
Weather: no significant weather observed at this time

METAR text: LIML 220820Z 21004KT 180V260 CAVOK 11/01 Q1031 NOSIG
Conditions at: LIML (MILANO/LINATE , IT) observed 0820 UTC 22 March 2019
Temperature: 11.0°C (52°F)
Dewpoint: 1.0°C (34°F) [RH = 50%]
Pressure (altimeter): 30.44 inches Hg (1031.0 mb)
Winds: from the SSW (210 degrees) at 5 MPH (4 knots; 2.1 m/s)
Visibility: 6 or more miles (10+ km)
Ceiling: ceiling and visibility are OK
Clouds: unknown
Weather: no significant weather observed at this time

Forecast for: LIML (MILANO/LINATE , IT)
Text: TAF LIML 220500Z 2206/2306 VRB05KT CAVOK
Forecast period: 0600 UTC 22 March 2019 to 0600 UTC 23 March 2019
Forecast type: FROM: standard forecast or significant change
Winds: variable direction winds at 6 MPH (5 knots; 2.6 m/s)
Visibility: 6 or more miles 10+ km)
Ceiling: unknown
Clouds: missing
Weather: NSW  (no significant weather)

 FLUGHAFENKARTE

 RUNWAY INFORMATION
Runway 18R Runway length 1972 ft Runway width 72 ft
Runway elevation 353 ft Runway displaced threshold 0 ft Runway heading 176
Runway 36L Runway length 1972 ft Runway width 72 ft
Runway elevation 349 ft Runway displaced threshold 0 ft Runway heading 356
Runway 18L Runway length 8005 ft Runway width 197 ft
Runway elevation 353 ft Runway displaced threshold 0 ft Runway heading 176
Runway 36R Runway length 8005 ft Runway width 197 ft
Runway elevation 337 ft Runway displaced threshold 0 ft Runway heading 356

 AIRPORT FREQUENCIES
Type APP Name MILANO APP Frequency 132.7 MHZ
Type ATIS Name ATIS Frequency 135.55 MHZ
Type DEP Name MILANO DEP Frequency 126.75 MHZ
Type GND Name GND Frequency 121.8 MHZ
Type TWR Name TWR Frequency 118.1 MHZ

 AIRPORT NEAR NAVIGATION AIDS
Type VOR-DME Name Linate Frequency 112250 KHZ
Type NDB Name Linate Frequency 386 KHZ